Time;durP1;ratioP1;P1;durP2;ratioP2;P2;SDS_P1;SDS_P2;PMS_P1;PMS_P2;Temp;Humidity;BMP_temperature;BMP_pressure;BME280_temperature;BME280_humidity;BME280_pressure;Samples;Min_cycle;Max_cycle;Signal;HPM_P1;HPM_P2
2023/07/22 00:01:37;;;;;;;3.47;3.10;;;14.60;99.90;;;;;;5096859;28;20789;-60
2023/07/22 00:04:05;;;;;;;4.30;3.40;;;;;;;;;;5095413;28;20473;-60
2023/07/22 00:06:32;;;;;;;4.03;3.03;;;14.90;99.90;;;;;;5117886;28;20441;-62
2023/07/22 00:09:03;;;;;;;6.53;4.03;;;15.10;99.90;;;;;;5079708;28;1132147;-61
2023/07/22 00:11:31;;;;;;;4.30;3.90;;;15.50;99.90;;;;;;5123753;28;20528;-61
2023/07/22 00:13:58;;;;;;;4.00;3.60;;;15.50;99.90;;;;;;5123773;28;20468;-59
2023/07/22 00:16:25;;;;;;;4.17;3.67;;;14.90;99.90;;;;;;5116137;28;20490;-61
2023/07/22 00:18:53;;;;;;;4.63;3.33;;;;;;;;;;5116072;28;21055;-60
2023/07/22 00:21:20;;;;;;;3.50;3.00;;;;;;;;;;5116325;28;20473;-60
2023/07/22 00:23:47;;;;;;;3.67;3.20;;;15.20;99.90;;;;;;5122152;28;20512;-60
2023/07/22 00:26:14;;;;;;;4.17;3.50;;;15.50;99.90;;;;;;5118306;28;20478;-60
2023/07/22 00:28:44;;;;;;;3.70;3.40;;;15.10;99.90;;;;;;5115943;28;20476;-62
2023/07/22 00:31:11;;;;;;;4.57;3.40;;;15.00;99.90;;;;;;5119114;28;20520;-61
2023/07/22 00:33:39;;;;;;;4.97;4.00;;;;;;;;;;5118976;28;20523;-57
2023/07/22 00:36:06;;;;;;;4.00;3.63;;;;;;;;;;5102825;28;20461;-61
2023/07/22 00:38:33;;;;;;;5.00;3.90;;;;;;;;;;5100704;28;20511;-60
2023/07/22 00:41:05;;;;;;;3.70;3.40;;;15.10;99.90;;;;;;5103338;28;20541;-59
2023/07/22 00:43:32;;;;;;;5.93;3.50;;;;;;;;;;5103791;28;20940;-62
2023/07/22 00:46:00;;;;;;;6.40;4.13;;;15.20;99.90;;;;;;5096516;28;20473;-62
2023/07/22 00:48:29;;;;;;;5.20;4.00;;;15.00;99.90;;;;;;5094775;28;20538;-60
2023/07/22 00:50:58;;;;;;;4.40;4.00;;;17.40;99.90;;;;;;5098880;28;20472;-62
2023/07/22 00:53:25;;;;;;;4.50;3.60;;;15.30;99.90;;;;;;5102647;28;20461;-60
2023/07/22 00:55:52;;;;;;;6.23;4.77;;;;;;;;;;5109151;28;20495;-59
2023/07/22 00:58:19;;;;;;;3.97;3.47;;;;;;;;;;5117582;28;20461;-58
2023/07/22 01:00:49;;;;;;;7.13;4.10;;;15.30;99.90;;;;;;5116957;28;20949;-59
2023/07/22 01:03:19;;;;;;;4.00;3.60;;;15.30;99.90;;;;;;5117616;28;20433;-57
2023/07/22 01:05:47;;;;;;;5.17;4.10;;;15.30;99.90;;;;;;5130146;28;20440;-57
2023/07/22 01:08:14;;;;;;;4.70;3.73;;;;;;;;;;5137268;28;20783;-59
2023/07/22 01:10:42;;;;;;;5.23;4.13;;;;;;;;;;5131718;28;20480;-61
2023/07/22 01:13:09;;;;;;;4.77;3.70;;;15.10;99.90;;;;;;5115692;28;20880;-61
2023/07/22 01:15:37;;;;;;;4.50;4.10;;;15.30;99.90;;;;;;5115096;28;20956;-61
2023/07/22 01:18:04;;;;;;;6.57;3.00;;;;;;;;;;5115305;28;20483;-59
2023/07/22 01:20:33;;;;;;;5.87;4.60;;;15.10;99.90;;;;;;5115425;28;20480;-60
2023/07/22 01:23:02;;;;;;;4.50;4.10;;;15.20;99.90;;;;;;5116632;28;20507;-60
2023/07/22 01:25:30;;;;;;;5.67;4.53;;;;;;;;;;5117446;28;20475;-61
2023/07/22 01:27:56;;;;;;;5.13;4.33;;;15.20;99.90;;;;;;5115427;28;20455;-62
2023/07/22 01:30:25;;;;;;;4.77;4.27;;;;;;;;;;5114766;28;20441;-59
2023/07/22 01:32:52;;;;;;;5.23;4.67;;;;;;;;;;5114824;28;20513;-61
2023/07/22 01:35:20;;;;;;;4.63;4.23;;;;;;;;;;5114576;28;20821;-57
2023/07/22 01:37:47;;;;;;;5.43;3.97;;;;;;;;;;5116349;28;20523;-59
2023/07/22 01:40:16;;;;;;;5.93;5.00;;;15.20;99.90;;;;;;5117946;28;20843;-60
2023/07/22 01:42:59;;;;;;;5.83;4.80;;;15.30;99.90;;;;;;5122629;28;20496;-61
2023/07/22 01:45:26;;;;;;;8.73;6.43;;;14.60;99.90;;;;;;5125035;28;20516;-59
2023/07/22 01:47:53;;;;;;;4.87;4.37;;;;;;;;;;5115068;28;20547;-60
2023/07/22 01:50:20;;;;;;;6.00;4.80;;;;;;;;;;5114937;28;20526;-59
2023/07/22 01:52:47;;;;;;;4.87;4.47;;;;;;;;;;5114799;28;20540;-60
2023/07/22 01:55:19;;;;;;;6.07;5.00;;;15.50;99.90;;;;;;5114765;28;20516;-60
2023/07/22 01:57:46;;;;;;;7.30;4.73;;;15.30;99.90;;;;;;5114561;28;20651;-60
2023/07/22 02:00:15;;;;;;;5.07;4.67;;;15.40;99.90;;;;;;5114510;28;20537;-60
2023/07/22 02:02:42;;;;;;;6.80;4.80;;;15.50;99.90;;;;;;5115321;28;20469;-60
2023/07/22 02:05:14;;;;;;;6.33;4.73;;;15.40;99.90;;;;;;5129142;27;20426;-54
2023/07/22 02:07:45;;;;;;;4.97;4.47;;;15.30;99.90;;;;;;5118289;28;20455;-55
2023/07/22 02:10:12;;;;;;;5.03;4.43;;;;;;;;;;5118375;28;20406;-54
2023/07/22 02:12:40;;;;;;;5.17;4.67;;;15.40;99.90;;;;;;5118388;28;20445;-56
2023/07/22 02:15:11;;;;;;;4.63;4.17;;;15.10;99.90;;;;;;5118409;28;20402;-55
2023/07/22 02:17:38;;;;;;;9.00;5.80;;;;;;;;;;5095314;28;20477;-59
2023/07/22 02:20:08;;;;;;;3.63;3.33;;;14.70;99.90;;;;;;5094072;28;20473;-61
2023/07/22 02:22:35;;;;;;;4.43;3.80;;;;;;;;;;5093709;28;20488;-59
2023/07/22 02:25:04;;;;;;;7.70;4.87;;;;;;;;;;5101825;28;20513;-60
2023/07/22 02:27:31;;;;;;;4.50;3.97;;;15.10;99.90;;;;;;5103141;28;20929;-61
2023/07/22 02:29:59;;;;;;;9.73;4.17;;;15.00;99.90;;;;;;5112841;28;20457;-59
2023/07/22 02:32:26;;;;;;;5.80;4.50;;;14.80;99.90;;;;;;5094290;28;20498;-60
2023/07/22 02:34:53;;;;;;;6.73;4.10;;;;;;;;;;5099713;28;20547;-57
2023/07/22 02:37:20;;;;;;;4.47;4.07;;;14.80;99.90;;;;;;5116414;28;20444;-58
2023/07/22 02:39:46;;;;;;;4.43;3.53;;;14.50;99.90;;;;;;5114325;28;20431;-61
2023/07/22 02:42:13;;;;;;;6.37;4.33;;;14.90;99.90;;;;;;5114234;28;20456;-62
2023/07/22 02:44:40;;;;;;;5.57;4.20;;;15.30;99.90;;;;;;5115787;28;20551;-60
2023/07/22 02:47:08;;;;;;;4.13;3.73;;;14.70;99.90;;;;;;5124203;28;20479;-61
2023/07/22 02:49:36;;;;;;;5.53;4.33;;;;;;;;;;5124097;28;20464;-58
2023/07/22 02:52:03;;;;;;;6.20;4.00;;;13.70;99.90;;;;;;5132262;28;20436;-59
2023/07/22 02:54:30;;;;;;;4.67;4.10;;;14.80;99.90;;;;;;5135072;28;20461;-61
2023/07/22 02:56:57;;;;;;;4.60;4.17;;;14.10;99.90;;;;;;5136577;28;20429;-60
2023/07/22 02:59:24;;;;;;;4.27;3.33;;;;;;;;;;5132949;28;20460;-57
2023/07/22 03:01:52;;;;;;;4.37;3.93;;;;;;;;;;5133349;28;20494;-59
2023/07/22 03:04:20;;;;;;;4.93;4.47;;;14.50;99.90;;;;;;5113019;28;20440;-60
2023/07/22 03:06:47;;;;;;;7.43;4.27;;;14.50;99.90;;;;;;5093775;28;20537;-61
2023/07/22 03:09:15;;;;;;;4.97;4.47;;;;;;;;;;5094268;28;20447;-61
2023/07/22 03:11:41;;;;;;;5.70;4.67;;;14.50;99.90;;;;;;5100504;28;20489;-61
2023/07/22 03:14:09;;;;;;;4.90;4.33;;;;;;;;;;5112537;28;20814;-61
2023/07/22 03:16:36;;;;;;;5.70;3.77;;;14.70;99.90;;;;;;5115001;28;20456;-56
2023/07/22 03:19:02;;;;;;;5.17;4.67;;;14.70;99.90;;;;;;5115700;28;20465;-58
2023/07/22 03:21:31;;;;;;;5.17;4.63;;;14.50;99.90;;;;;;5114964;28;20523;-60
2023/07/22 03:23:57;;;;;;;11.13;5.20;;;14.50;99.90;;;;;;5115117;28;20475;-60
2023/07/22 03:26:25;;;;;;;7.23;4.87;;;;;;;;;;5097554;28;20462;-61
2023/07/22 03:28:52;;;;;;;4.97;3.97;;;14.40;99.90;;;;;;5096871;28;20457;-62
2023/07/22 03:31:19;;;;;;;15.53;5.03;;;;;;;;;;5096761;28;20512;-62
2023/07/22 03:33:46;;;;;;;5.27;4.27;;;14.30;99.90;;;;;;5096734;28;20493;-60
2023/07/22 03:36:13;;;;;;;5.37;4.83;;;;;;;;;;5118475;28;20473;-61
2023/07/22 03:38:41;;;;;;;5.77;4.83;;;14.50;99.90;;;;;;5116986;28;20944;-60
2023/07/22 03:41:09;;;;;;;5.20;4.53;;;;;;;;;;5116700;28;20960;-59
2023/07/22 03:43:35;;;;;;;5.40;4.03;;;14.40;99.90;;;;;;5117158;28;20831;-60
2023/07/22 03:46:02;;;;;;;5.10;4.40;;;14.40;99.90;;;;;;5117028;28;21011;-61
2023/07/22 03:48:29;;;;;;;6.37;4.70;;;14.60;99.90;;;;;;5117212;28;20448;-61
2023/07/22 03:50:56;;;;;;;5.40;4.60;;;14.30;99.90;;;;;;5139387;27;20469;-55
2023/07/22 03:53:23;;;;;;;6.77;4.30;;;;;;;;;;5140620;27;20421;-59
2023/07/22 03:55:51;;;;;;;4.53;4.13;;;14.60;99.90;;;;;;5139269;28;20435;-59
2023/07/22 03:58:19;;;;;;;4.83;4.37;;;;;;;;;;5139621;28;20417;-58
2023/07/22 04:00:50;;;;;;;8.63;4.30;;;14.40;99.90;;;;;;5139420;28;20480;-58
2023/07/22 04:03:17;;;;;;;6.20;3.70;;;;;;;;;;5124516;28;20464;-60
2023/07/22 04:05:44;;;;;;;4.70;4.20;;;;;;;;;;5117405;28;20544;-59
2023/07/22 04:08:13;;;;;;;7.50;4.33;;;14.20;99.90;;;;;;5140847;27;20429;-50
2023/07/22 04:10:40;;;;;;;11.63;4.07;;;;;;;;;;5140865;27;20507;-53
2023/07/22 04:13:11;;;;;;;4.17;3.60;;;14.20;99.90;;;;;;5140747;27;20460;-56
2023/07/22 04:15:40;;;;;;;6.20;4.03;;;;;;;;;;5140721;27;20409;-52
2023/07/22 04:18:07;;;;;;;5.17;4.10;;;14.30;99.90;;;;;;5140614;27;20436;-53
2023/07/22 04:20:34;;;;;;;7.50;3.93;;;;;;;;;;5117783;28;20932;-59
2023/07/22 04:23:01;;;;;;;4.40;3.43;;;14.40;99.90;;;;;;5115035;28;20467;-61
2023/07/22 04:25:28;;;;;;;3.97;3.17;;;14.40;99.90;;;;;;5116051;28;20492;-59
2023/07/22 04:27:55;;;;;;;4.13;3.43;;;;;;;;;;5116876;28;20547;-60
2023/07/22 04:30:24;;;;;;;6.30;4.00;;;14.50;99.90;;;;;;5121137;28;20822;-61
2023/07/22 04:32:51;;;;;;;4.00;3.43;;;14.10;99.90;;;;;;5125480;28;20472;-59
2023/07/22 04:35:18;;;;;;;4.37;2.80;;;14.80;99.90;;;;;;5109848;28;20451;-60
2023/07/22 04:37:45;;;;;;;5.07;3.17;;;14.50;99.90;;;;;;5099740;28;20599;-59
2023/07/22 04:40:15;;;;;;;4.13;3.40;;;;;;;;;;5095675;28;20441;-60
2023/07/22 04:42:42;;;;;;;4.90;3.27;;;14.60;99.90;;;;;;5096605;28;20572;-59
2023/07/22 04:45:11;;;;;;;3.50;3.20;;;14.50;99.90;;;;;;5096272;28;20528;-59
2023/07/22 04:47:39;;;;;;;3.97;2.97;;;14.50;99.90;;;;;;5096897;28;20448;-61
2023/07/22 04:50:09;;;;;;;6.03;3.73;;;14.70;99.90;;;;;;5095351;28;20438;-61
2023/07/22 04:52:49;;;;;;;7.13;3.63;;;;;;;;;;5095127;28;20448;-61
2023/07/22 04:55:16;;;;;;;4.37;3.40;;;;;;;;;;5095479;28;20833;-60
2023/07/22 04:57:44;;;;;;;5.43;3.43;;;;;;;;;;5095333;28;20464;-61
2023/07/22 05:00:16;;;;;;;6.07;3.43;;;14.70;99.90;;;;;;5095109;28;20460;-59
2023/07/22 05:02:45;;;;;;;5.97;3.90;;;;;;;;;;5095232;28;20461;-60
2023/07/22 05:05:12;;;;;;;5.87;4.50;;;;;;;;;;5094812;28;20751;-58
2023/07/22 05:07:39;;;;;;;4.77;3.50;;;;;;;;;;5095008;28;20538;-61
2023/07/22 05:10:11;;;;;;;5.40;4.13;;;;;;;;;;5096244;28;20433;-60
2023/07/22 05:12:38;;;;;;;6.27;4.30;;;15.00;99.90;;;;;;5102911;28;20422;-59
2023/07/22 05:15:06;;;;;;;6.63;4.53;;;14.40;99.90;;;;;;5103800;28;21020;-61
2023/07/22 05:17:33;;;;;;;9.23;4.90;;;;;;;;;;5112986;28;20476;-58
2023/07/22 05:20:02;;;;;;;6.53;4.63;;;15.20;99.90;;;;;;5096018;28;20461;-60
2023/07/22 05:22:29;;;;;;;5.87;3.83;;;;;;;;;;5094527;28;20990;-61
2023/07/22 05:24:56;;;;;;;8.33;4.70;;;15.10;99.90;;;;;;5096408;28;20505;-61
2023/07/22 05:27:23;;;;;;;4.60;4.20;;;15.10;99.90;;;;;;5108517;28;20452;-56
2023/07/22 05:29:50;;;;;;;6.37;4.97;;;;;;;;;;5095020;28;20493;-60
2023/07/22 05:32:17;;;;;;;7.43;4.77;;;15.60;99.90;;;;;;5095471;28;20469;-61
2023/07/22 05:34:44;;;;;;;5.87;4.60;;;15.30;99.90;;;;;;5095710;28;20570;-61
2023/07/22 05:37:12;;;;;;;5.07;4.20;;;15.40;99.90;;;;;;5094640;28;20582;-62
2023/07/22 05:39:39;;;;;;;6.83;4.90;;;;;;;;;;5094173;28;20461;-60
2023/07/22 05:42:07;;;;;;;9.60;5.10;;;15.30;99.90;;;;;;5098569;28;20461;-61
2023/07/22 05:44:34;;;;;;;7.53;5.10;;;;;;;;;;5096681;28;20481;-60
2023/07/22 05:47:01;;;;;;;8.10;4.60;;;;;;;;;;5094660;28;20525;-60
2023/07/22 05:49:29;;;;;;;7.10;5.00;;;15.60;99.90;;;;;;5094310;28;20462;-59
2023/07/22 05:51:56;;;;;;;8.97;5.87;;;15.30;99.90;;;;;;5094263;28;20483;-59
2023/07/22 05:54:24;;;;;;;16.43;5.53;;;16.10;99.90;;;;;;5097124;28;20549;-60
2023/07/22 05:56:51;;;;;;;6.77;4.37;;;;;;;;;;5097795;28;20449;-60
2023/07/22 05:59:19;;;;;;;6.67;5.30;;;;;;;;;;5097881;28;20536;-60
2023/07/22 06:01:46;;;;;;;12.73;5.37;;;;;;;;;;5105165;28;20540;-61
2023/07/22 06:04:13;;;;;;;9.50;5.17;;;;;;;;;;5098804;28;20536;-59
2023/07/22 06:06:40;;;;;;;6.80;5.13;;;;;;;;;;5094556;28;20866;-60
2023/07/22 06:09:07;;;;;;;8.20;5.50;;;;;;;;;;5103536;28;20528;-60
2023/07/22 06:11:35;;;;;;;8.50;4.97;;;15.90;99.90;;;;;;5096084;28;20470;-60
2023/07/22 06:14:02;;;;;;;8.10;4.87;;;16.00;99.90;;;;;;5094403;28;20533;-62
2023/07/22 06:16:29;;;;;;;6.40;4.73;;;;;;;;;;5093903;28;20548;-61
2023/07/22 06:18:56;;;;;;;6.30;4.67;;;15.90;99.90;;;;;;5094168;28;20541;-60
2023/07/22 06:21:23;;;;;;;6.93;4.80;;;;;;;;;;5093897;28;20584;-60
2023/07/22 06:23:51;;;;;;;7.10;4.90;;;;;;;;;;5093801;28;20442;-58
2023/07/22 06:26:18;;;;;;;7.20;5.00;;;;;;;;;;5095435;28;20984;-60
2023/07/22 06:28:46;;;;;;;8.17;5.97;;;16.90;99.90;;;;;;5098589;28;20430;-60
2023/07/22 06:31:15;;;;;;;6.40;4.17;;;;;;;;;;5101213;28;20449;-60
2023/07/22 06:33:42;;;;;;;7.00;5.27;;;16.20;99.90;;;;;;5111058;28;20449;-60
2023/07/22 06:36:16;;;;;;;8.70;4.93;;;;;;;;;;5107458;28;20455;-56
2023/07/22 06:38:43;;;;;;;5.07;3.93;;;16.60;99.90;;;;;;5118224;28;20410;-54
2023/07/22 06:41:10;;;;;;;6.10;4.10;;;16.40;99.90;;;;;;5117895;28;20428;-50
2023/07/22 06:43:37;;;;;;;8.00;4.80;;;;;;;;;;5112877;28;20444;-62
2023/07/22 06:46:05;;;;;;;4.53;3.70;;;16.20;99.90;;;;;;5099096;28;20445;-62
2023/07/22 06:48:32;;;;;;;7.30;4.70;;;;;;;;;;5097530;28;20429;-59
2023/07/22 06:50:59;;;;;;;8.03;3.83;;;;;;;;;;5097568;28;20458;-61
2023/07/22 06:53:26;;;;;;;5.13;3.70;;;16.60;99.90;;;;;;5097395;28;20464;-60
2023/07/22 06:55:54;;;;;;;6.63;4.90;;;17.00;99.90;;;;;;5097443;28;20524;-59
2023/07/22 06:58:22;;;;;;;4.67;3.43;;;;;;;;;;5097762;28;20501;-60
2023/07/22 07:00:49;;;;;;;4.63;3.50;;;16.80;99.90;;;;;;5097542;28;20453;-60
2023/07/22 07:03:17;;;;;;;3.03;2.60;;;16.90;99.90;;;;;;5097356;28;20529;-62
2023/07/22 07:05:44;;;;;;;8.17;3.93;;;18.20;99.90;;;;;;5097457;28;20819;-60
2023/07/22 07:08:14;;;;;;;3.73;2.87;;;17.00;99.90;;;;;;5111561;28;20476;-52
2023/07/22 07:10:40;;;;;;;5.80;3.20;;;17.30;99.90;;;;;;5121448;28;20430;-52
2023/07/22 07:13:09;;;;;;;3.50;2.77;;;17.20;99.90;;;;;;5120745;28;20469;-60
2023/07/22 07:15:36;;;;;;;10.40;2.77;;;;;;;;;;5118257;28;20452;-58
2023/07/22 07:18:03;;;;;;;5.83;2.47;;;;;;;;;;5118587;28;20465;-61
2023/07/22 07:20:31;;;;;;;3.77;2.70;;;17.40;99.90;;;;;;5105518;28;20513;-60
2023/07/22 07:22:58;;;;;;;4.90;3.00;;;;;;;;;;5096726;28;20491;-60
2023/07/22 07:25:25;;;;;;;3.80;3.33;;;;;;;;;;5097096;28;20936;-62
2023/07/22 07:27:52;;;;;;;4.73;3.60;;;18.30;99.90;;;;;;5120458;28;20431;-54
2023/07/22 07:30:22;;;;;;;3.67;3.00;;;19.00;99.90;;;;;;5121073;28;20429;-52
2023/07/22 07:32:50;;;;;;;4.57;3.30;;;19.20;99.90;;;;;;5120948;28;20406;-54
2023/07/22 07:35:17;;;;;;;4.97;2.47;;;19.90;99.90;;;;;;5100046;28;20449;-61
2023/07/22 07:37:45;;;;;;;5.10;4.10;;;20.60;99.90;;;;;;5097925;28;20441;-61
2023/07/22 07:40:13;;;;;;;5.07;3.37;;;20.30;99.90;;;;;;5096930;28;20455;-61
2023/07/22 07:42:40;;;;;;;4.13;3.03;;;;;;;;;;5096266;28;20485;-59
2023/07/22 07:45:10;;;;;;;4.60;2.47;;;19.80;99.90;;;;;;5096568;28;20558;-60
2023/07/22 07:47:38;;;;;;;6.80;3.67;;;;;;;;;;5098923;28;20518;-60
2023/07/22 07:50:06;;;;;;;4.73;3.17;;;20.00;99.90;;;;;;5106024;28;20505;-60
2023/07/22 07:52:33;;;;;;;5.27;3.00;;;;;;;;;;5103862;28;20758;-61
2023/07/22 07:55:02;;;;;;;3.60;1.97;;;20.30;99.90;;;;;;5096168;28;21104;-59
2023/07/22 07:57:29;;;;;;;10.00;2.93;;;20.00;99.90;;;;;;5096527;28;20528;-59
2023/07/22 07:59:56;;;;;;;5.43;3.30;;;;;;;;;;5096251;28;20514;-60
2023/07/22 08:02:23;;;;;;;3.67;3.33;;;;;;;;;;5096040;28;20513;-58
2023/07/22 08:04:54;;;;;;;3.67;3.10;;;;;;;;;;5119238;28;20460;-53
2023/07/22 08:07:22;;;;;;;7.57;3.90;;;;;;;;;;5120174;28;20623;-52
2023/07/22 08:09:52;;;;;;;7.73;3.60;;;21.30;99.90;;;;;;5120317;28;20464;-54
2023/07/22 08:12:21;;;;;;;4.33;2.90;;;21.20;99.90;;;;;;5120399;28;20410;-53
2023/07/22 08:14:47;;;;;;;7.57;2.93;;;21.90;99.90;;;;;;5118214;28;20898;-60
2023/07/22 08:17:14;;;;;;;3.63;2.47;;;21.50;99.90;;;;;;5114256;28;20422;-59
2023/07/22 08:19:41;;;;;;;6.23;3.40;;;;;;;;;;5104083;28;20528;-61
2023/07/22 08:22:08;;;;;;;7.60;2.80;;;22.10;99.90;;;;;;5096319;28;20524;-61
2023/07/22 08:24:36;;;;;;;4.70;3.10;;;;;;;;;;5096419;28;20645;-63
2023/07/22 08:27:04;;;;;;;4.03;3.20;;;20.80;99.90;;;;;;5106662;28;20443;-52
2023/07/22 08:29:33;;;;;;;3.70;3.23;;;21.40;99.90;;;;;;5119826;28;20432;-54
2023/07/22 08:32:00;;;;;;;5.50;3.83;;;21.80;99.90;;;;;;5119327;28;20445;-59
2023/07/22 08:34:27;;;;;;;4.30;2.87;;;21.50;99.90;;;;;;5100767;28;20461;-61
2023/07/22 08:36:54;;;;;;;4.70;3.17;;;;;;;;;;5095513;28;20450;-60
2023/07/22 08:39:21;;;;;;;11.17;3.97;;;21.50;99.90;;;;;;5095454;28;20544;-61
2023/07/22 08:41:50;;;;;;;5.67;3.03;;;21.50;99.90;;;;;;5095334;28;20552;-59
2023/07/22 08:44:20;;;;;;;3.30;3.00;;;21.80;99.90;;;;;;5095713;28;20453;-59
2023/07/22 08:46:51;;;;;;;3.33;2.77;;;21.80;99.90;;;;;;5095579;28;20811;-61
2023/07/22 08:49:19;;;;;;;5.87;2.93;;;;;;;;;;5096035;28;20470;-60
2023/07/22 08:51:47;;;;;;;4.20;3.10;;;21.70;99.90;;;;;;5098974;28;20497;-62
2023/07/22 08:54:14;;;;;;;5.10;3.73;;;22.10;99.90;;;;;;5095758;28;20452;-59
2023/07/22 08:56:43;;;;;;;3.63;2.90;;;21.70;99.90;;;;;;5106654;28;20457;-54
2023/07/22 08:59:10;;;;;;;5.03;3.17;;;;;;;;;;5117345;28;20445;-59
2023/07/22 09:01:39;;;;;;;8.40;3.63;;;21.30;99.90;;;;;;5098846;28;20492;-61
2023/07/22 09:04:08;;;;;;;4.60;3.10;;;21.20;99.90;;;;;;5095544;28;20552;-58
2023/07/22 09:06:36;;;;;;;3.03;2.57;;;;;;;;;;5095123;28;20477;-59
2023/07/22 09:09:07;;;;;;;4.77;3.10;;;;;;;;;;5094296;28;20453;-61
2023/07/22 09:11:35;;;;;;;5.00;2.97;;;20.50;99.90;;;;;;5096918;28;20493;-59
2023/07/22 09:14:03;;;;;;;3.37;2.87;;;20.80;99.90;;;;;;5095640;28;20430;-59
2023/07/22 09:16:31;;;;;;;4.03;2.97;;;20.80;99.90;;;;;;5109694;28;20430;-52
2023/07/22 09:18:59;;;;;;;6.90;3.10;;;;;;;;;;5118930;28;20418;-51
2023/07/22 09:21:27;;;;;;;4.10;2.93;;;21.30;99.90;;;;;;5097544;28;20449;-61
2023/07/22 09:23:54;;;;;;;4.07;2.90;;;21.00;99.90;;;;;;5094789;28;20499;-61
2023/07/22 09:26:24;;;;;;;5.03;2.90;;;21.50;99.90;;;;;;5108242;28;20452;-54
2023/07/22 09:28:53;;;;;;;15.93;3.90;;;21.80;99.90;;;;;;5118834;28;20467;-59
2023/07/22 09:31:21;;;;;;;5.57;2.87;;;22.40;99.90;;;;;;5109270;28;20438;-60
2023/07/22 09:33:48;;;;;;;3.30;2.87;;;;;;;;;;5094358;28;20460;-61
2023/07/22 09:36:15;;;;;;;4.20;2.70;;;24.30;99.90;;;;;;5104075;28;20530;-60
2023/07/22 09:38:43;;;;;;;3.30;2.40;;;24.60;99.90;;;;;;5094674;28;20476;-62
2023/07/22 09:41:11;;;;;;;4.47;3.00;;;;;;;;;;5094877;28;20519;-59
2023/07/22 09:43:39;;;;;;;3.27;2.37;;;23.80;99.90;;;;;;5095346;28;20596;-61
2023/07/22 09:46:11;;;;;;;3.27;2.60;;;23.90;99.90;;;;;;5094670;28;20528;-60
2023/07/22 09:48:42;;;;;;;6.87;2.50;;;24.20;99.90;;;;;;5105406;28;20473;-53
2023/07/22 09:51:14;;;;;;;2.77;2.37;;;23.30;99.90;;;;;;5118570;28;20409;-54
2023/07/22 09:53:47;;;;;;;3.30;2.63;;;22.80;99.90;;;;;;5118530;28;20463;-53
2023/07/22 09:56:14;;;;;;;4.27;2.70;;;22.20;99.90;;;;;;5107459;28;20901;-63
2023/07/22 09:58:42;;;;;;;3.70;2.73;;;;;;;;;;5094689;28;20542;-59
2023/07/22 10:01:09;;;;;;;3.70;2.47;;;;;;;;;;5110623;28;20453;-52
2023/07/22 10:03:38;;;;;;;4.13;2.57;;;22.10;99.90;;;;;;5096602;28;20614;-61
2023/07/22 10:06:08;;;;;;;2.80;1.87;;;22.20;99.90;;;;;;5110256;28;20456;-61
2023/07/22 10:08:37;;;;;;;3.30;2.27;;;22.30;99.90;;;;;;5101254;28;20453;-60
2023/07/22 10:11:10;;;;;;;3.10;2.63;;;21.90;99.90;;;;;;5101771;28;20499;-63
2023/07/22 10:13:38;;;;;;;6.47;3.00;;;21.60;99.90;;;;;;5109545;28;20429;-53
2023/07/22 10:16:05;;;;;;;8.17;3.27;;;21.50;99.90;;;;;;5116125;28;20432;-59
2023/07/22 10:18:34;;;;;;;4.20;3.20;;;22.10;99.90;;;;;;5106941;28;20445;-61
2023/07/22 10:21:02;;;;;;;4.20;2.80;;;;;;;;;;5117957;28;20471;-63
2023/07/22 10:23:30;;;;;;;3.33;2.30;;;23.40;99.90;;;;;;5108612;28;20468;-60
2023/07/22 10:25:59;;;;;;;3.20;2.70;;;24.00;99.90;;;;;;5103104;28;20556;-59
2023/07/22 10:28:27;;;;;;;5.53;3.10;;;;;;;;;;5098193;28;20463;-61
2023/07/22 10:30:54;;;;;;;6.17;3.60;;;24.50;99.90;;;;;;5097901;28;20445;-61
2023/07/22 10:33:21;;;;;;;3.97;2.37;;;;;;;;;;5097986;28;20963;-61
2023/07/22 10:36:05;;;;;;;6.57;2.80;;;24.90;91.00;;;;;;5099868;28;20560;-61
2023/07/22 10:38:32;;;;;;;3.43;2.23;;;24.50;99.90;;;;;;5097533;28;20446;-54
2023/07/22 10:40:59;;;;;;;5.43;2.80;;;24.00;89.40;;;;;;5086022;28;20772;-62
2023/07/22 10:43:30;;;;;;;6.60;2.80;;;23.50;99.90;;;;;;5077566;28;20889;-60
2023/07/22 10:45:59;;;;;;;4.47;2.80;;;22.50;99.90;;;;;;5077334;28;20926;-59
2023/07/22 10:48:28;;;;;;;3.73;2.43;;;22.60;95.50;;;;;;5077310;28;20508;-63
2023/07/22 10:51:05;;;;;;;10.83;3.90;;;22.60;98.10;;;;;;5077482;28;20477;-60
2023/07/22 10:53:33;;;;;;;4.60;3.03;;;;;;;;;;5077268;28;20426;-60
2023/07/22 10:56:21;;;;;;;7.57;3.00;;;22.20;99.90;;;;;;5077068;28;20570;-62
2023/07/22 10:59:00;;;;;;;3.73;3.00;;;21.80;99.90;;;;;;5082387;28;20418;-59
2023/07/22 11:01:36;;;;;;;4.90;3.10;;;21.50;99.90;;;;;;5085332;28;20468;-60
2023/07/22 11:04:13;;;;;;;3.80;2.97;;;21.30;99.90;;;;;;5099607;28;20552;-62
2023/07/22 11:06:53;;;;;;;5.60;3.23;;;21.40;99.90;;;;;;5097452;28;20512;-60
2023/07/22 11:09:36;;;;;;;4.27;3.27;;;21.50;99.90;;;;;;5097188;28;20421;-60
2023/07/22 11:12:05;;;;;;;2.93;2.60;;;21.10;99.90;;;;;;5097957;28;20502;-60
2023/07/22 11:14:35;;;;;;;8.27;3.20;;;21.40;99.60;;;;;;5101817;28;20484;-60
2023/07/22 11:17:04;;;;;;;5.67;3.13;;;22.00;99.90;;;;;;5115739;28;20468;-59
2023/07/22 11:19:32;;;;;;;3.80;2.93;;;21.70;99.90;;;;;;5111418;28;20450;-61
2023/07/22 11:21:59;;;;;;;3.67;2.90;;;21.80;99.90;;;;;;5106731;28;20511;-60
2023/07/22 11:24:29;;;;;;;3.60;2.50;;;21.70;99.90;;;;;;5098095;28;20476;-62
2023/07/22 11:26:56;;;;;;;5.97;3.80;;;21.80;99.90;;;;;;5097068;28;20606;-61
2023/07/22 11:29:23;;;;;;;4.80;3.90;;;21.80;99.90;;;;;;5096972;28;20445;-60
2023/07/22 11:31:52;;;;;;;4.90;4.13;;;21.80;99.20;;;;;;5096560;28;20531;-60
2023/07/22 11:34:23;;;;;;;4.90;3.43;;;21.80;99.90;;;;;;5096982;28;20442;-62
2023/07/22 11:36:52;;;;;;;4.60;3.07;;;22.40;98.80;;;;;;5097972;28;20868;-61
2023/07/22 11:39:20;;;;;;;6.70;2.73;;;22.80;99.90;;;;;;5106385;28;20841;-63
2023/07/22 11:41:49;;;;;;;6.43;2.90;;;22.40;99.90;;;;;;5117312;28;20563;-61
2023/07/22 11:44:17;;;;;;;4.97;3.20;;;22.50;99.90;;;;;;5116900;28;20464;-61
2023/07/22 11:46:49;;;;;;;4.00;3.60;;;22.70;99.90;;;;;;5116966;28;20976;-62
2023/07/22 11:49:25;;;;;;;6.17;3.70;;;22.80;97.10;;;;;;5117292;28;20437;-60
2023/07/22 11:51:54;;;;;;;5.10;2.80;;;23.00;99.90;;;;;;5117041;28;20424;-58
2023/07/22 11:54:22;;;;;;;3.63;3.07;;;22.80;99.90;;;;;;5116530;28;20528;-60
2023/07/22 11:56:49;;;;;;;4.30;3.07;;;;;;;;;;5139531;27;20421;-51
2023/07/22 11:59:16;;;;;;;5.70;3.03;;;22.60;99.90;;;;;;5133297;28;20484;-61
2023/07/22 12:01:46;;;;;;;5.13;3.00;;;23.40;99.90;;;;;;5122958;28;20456;-60
2023/07/22 12:04:14;;;;;;;5.73;3.87;;;22.90;99.90;;;;;;5091332;28;20777;-58
2023/07/22 12:06:43;;;;;;;4.23;2.93;;;22.70;94.70;;;;;;5090671;28;20481;-60
2023/07/22 12:09:11;;;;;;;4.73;3.23;;;22.80;94.20;;;;;;5088680;28;20562;-62
2023/07/22 12:11:38;;;;;;;7.27;3.20;;;;;;;;;;5081959;28;20469;-60
2023/07/22 12:14:09;;;;;;;4.50;2.97;;;23.00;99.90;;;;;;5082217;28;20494;-61
2023/07/22 12:16:37;;;;;;;4.80;2.90;;;23.10;99.90;;;;;;5087504;28;20448;-59
2023/07/22 12:19:04;;;;;;;5.37;3.67;;;;;;;;;;5091547;28;20466;-60
2023/07/22 12:21:32;;;;;;;3.67;2.90;;;;;;;;;;5082741;28;20438;-61
2023/07/22 12:24:01;;;;;;;5.47;3.20;;;23.00;99.90;;;;;;5082938;28;20486;-58
2023/07/22 12:26:28;;;;;;;4.23;2.90;;;22.60;99.90;;;;;;5083811;28;20466;-61
2023/07/22 12:28:55;;;;;;;5.33;3.40;;;;;;;;;;5088165;28;20748;-61
2023/07/22 12:31:22;;;;;;;4.40;3.27;;;;;;;;;;5076214;28;20461;-64
2023/07/22 12:33:49;;;;;;;5.60;3.33;;;22.50;99.90;;;;;;5093525;28;20561;-61
2023/07/22 12:36:18;;;;;;;4.60;3.20;;;23.20;99.90;;;;;;5106137;28;20470;-61
2023/07/22 12:38:45;;;;;;;5.20;3.20;;;;;;;;;;5112976;28;20945;-57
2023/07/22 12:41:15;;;;;;;3.60;3.00;;;23.50;99.30;;;;;;5113584;28;20418;-60
2023/07/22 12:43:42;;;;;;;10.77;3.20;;;23.60;99.90;;;;;;5110007;28;20848;-62
2023/07/22 12:46:09;;;;;;;3.70;3.30;;;;;;;;;;5106414;28;20434;-59
2023/07/22 12:48:39;;;;;;;6.07;3.73;;;23.10;99.90;;;;;;5113933;28;20446;-57
2023/07/22 12:51:06;;;;;;;5.10;3.30;;;;;;;;;;5114703;28;20442;-59
2023/07/22 12:53:33;;;;;;;4.00;3.67;;;;;;;;;;5110599;28;20445;-60
2023/07/22 12:56:02;;;;;;;4.47;3.77;;;23.10;99.90;;;;;;5107408;28;20441;-60
2023/07/22 12:58:30;;;;;;;3.70;3.20;;;23.00;99.90;;;;;;5100886;28;20460;-60
2023/07/22 13:00:57;;;;;;;4.63;2.87;;;23.00;99.90;;;;;;5100792;28;20488;-61
2023/07/22 13:03:24;;;;;;;4.67;3.43;;;23.10;99.90;;;;;;5098745;28;20554;-61
2023/07/22 13:05:51;;;;;;;10.00;3.87;;;22.50;99.90;;;;;;5109856;28;20475;-61
2023/07/22 13:08:18;;;;;;;4.43;3.70;;;22.80;99.90;;;;;;5115895;28;20559;-60
2023/07/22 13:10:47;;;;;;;3.70;3.10;;;22.60;99.90;;;;;;5111301;28;20548;-60
2023/07/22 13:13:14;;;;;;;4.97;3.30;;;;;;;;;;5095460;28;20515;-61
2023/07/22 13:15:42;;;;;;;3.93;2.77;;;22.60;99.90;;;;;;5094930;28;20522;-61
2023/07/22 13:18:09;;;;;;;4.50;3.70;;;22.30;99.90;;;;;;5094979;28;20433;-60
2023/07/22 13:20:36;;;;;;;4.83;4.07;;;;;;;;;;5105363;28;20518;-59
2023/07/22 13:23:03;;;;;;;4.30;3.00;;;;;;;;;;5104337;28;20453;-60
2023/07/22 13:25:30;;;;;;;9.83;3.90;;;22.50;99.90;;;;;;5101876;28;21020;-60
2023/07/22 13:27:59;;;;;;;4.87;3.53;;;22.50;99.90;;;;;;5099842;28;20457;-61